sensor_id;sensor_type;location;lat;lon;timestamp;temperature;humidity
24412;DHT22;12544;46.760;15.942;2023-05-08T00:00:34;11.70;99.90
24412;DHT22;12544;46.760;15.942;2023-05-08T00:03:00;11.70;99.90
24412;DHT22;12544;46.760;15.942;2023-05-08T00:05:25;11.70;99.90
24412;DHT22;12544;46.760;15.942;2023-05-08T00:07:51;11.60;99.90
24412;DHT22;12544;46.760;15.942;2023-05-08T00:10:18;11.50;99.90
24412;DHT22;12544;46.760;15.942;2023-05-08T00:12:43;11.40;99.90
24412;DHT22;12544;46.760;15.942;2023-05-08T00:15:10;11.30;99.90
24412;DHT22;12544;46.760;15.942;2023-05-08T00:17:36;11.20;99.90
24412;DHT22;12544;46.760;15.942;2023-05-08T00:20:01;11.10;99.90
24412;DHT22;12544;46.760;15.942;2023-05-08T00:22:27;11.10;99.90
24412;DHT22;12544;46.760;15.942;2023-05-08T00:24:53;11.00;99.90
24412;DHT22;12544;46.760;15.942;2023-05-08T00:27:21;11.00;99.90
24412;DHT22;12544;46.760;15.942;2023-05-08T00:29:48;10.90;99.90
24412;DHT22;12544;46.760;15.942;2023-05-08T00:32:14;10.80;99.90
24412;DHT22;12544;46.760;15.942;2023-05-08T00:34:40;10.80;99.90
24412;DHT22;12544;46.760;15.942;2023-05-08T00:37:06;10.70;99.90
24412;DHT22;12544;46.760;15.942;2023-05-08T00:39:31;10.60;99.90
24412;DHT22;12544;46.760;15.942;2023-05-08T00:41:57;10.50;99.90
24412;DHT22;12544;46.760;15.942;2023-05-08T00:44:23;10.50;99.90
24412;DHT22;12544;46.760;15.942;2023-05-08T00:46:49;10.40;99.90
24412;DHT22;12544;46.760;15.942;2023-05-08T00:49:15;10.40;99.90
24412;DHT22;12544;46.760;15.942;2023-05-08T00:55:03;10.30;99.90
24412;DHT22;12544;46.760;15.942;2023-05-08T00:57:31;10.30;99.90
24412;DHT22;12544;46.760;15.942;2023-05-08T01:00:00;10.30;99.90
24412;DHT22;12544;46.760;15.942;2023-05-08T01:02:26;10.30;99.90
24412;DHT22;12544;46.760;15.942;2023-05-08T01:04:52;10.30;99.90
24412;DHT22;12544;46.760;15.942;2023-05-08T01:07:19;10.30;99.90
24412;DHT22;12544;46.760;15.942;2023-05-08T01:09:45;10.30;99.90
24412;DHT22;12544;46.760;15.942;2023-05-08T01:12:19;10.10;99.90
24412;DHT22;12544;46.760;15.942;2023-05-08T01:24:03;9.90;99.90
24412;DHT22;12544;46.760;15.942;2023-05-08T01:32:38;9.80;99.90
24412;DHT22;12544;46.760;15.942;2023-05-08T01:35:22;9.80;99.90
24412;DHT22;12544;46.760;15.942;2023-05-08T01:41:16;9.90;99.90
24412;DHT22;12544;46.760;15.942;2023-05-08T01:46:15;9.90;99.90
24412;DHT22;12544;46.760;15.942;2023-05-08T01:48:49;9.90;99.90
24412;DHT22;12544;46.760;15.942;2023-05-08T01:51:39;9.90;99.90
24412;DHT22;12544;46.760;15.942;2023-05-08T01:54:09;9.90;99.90
24412;DHT22;12544;46.760;15.942;2023-05-08T01:56:36;9.80;99.90
24412;DHT22;12544;46.760;15.942;2023-05-08T01:59:04;9.80;99.90
24412;DHT22;12544;46.760;15.942;2023-05-08T02:01:32;9.80;99.90
24412;DHT22;12544;46.760;15.942;2023-05-08T02:03:59;9.90;99.90
24412;DHT22;12544;46.760;15.942;2023-05-08T02:06:26;9.80;99.90
24412;DHT22;12544;46.760;15.942;2023-05-08T02:08:53;9.90;99.90
24412;DHT22;12544;46.760;15.942;2023-05-08T02:11:22;9.90;99.90
24412;DHT22;12544;46.760;15.942;2023-05-08T02:13:50;9.90;99.90
24412;DHT22;12544;46.760;15.942;2023-05-08T02:16:17;9.90;99.90
24412;DHT22;12544;46.760;15.942;2023-05-08T02:18:50;9.80;99.90
24412;DHT22;12544;46.760;15.942;2023-05-08T02:21:17;9.80;99.90
24412;DHT22;12544;46.760;15.942;2023-05-08T02:23:44;9.80;99.90
24412;DHT22;12544;46.760;15.942;2023-05-08T02:26:21;9.80;99.90
24412;DHT22;12544;46.760;15.942;2023-05-08T02:28:49;9.90;99.90
24412;DHT22;12544;46.760;15.942;2023-05-08T02:31:15;9.80;99.90
24412;DHT22;12544;46.760;15.942;2023-05-08T02:33:42;9.80;99.90
24412;DHT22;12544;46.760;15.942;2023-05-08T02:36:12;9.90;99.90
24412;DHT22;12544;46.760;15.942;2023-05-08T02:38:40;9.90;99.90
24412;DHT22;12544;46.760;15.942;2023-05-08T02:41:09;9.80;99.90
24412;DHT22;12544;46.760;15.942;2023-05-08T02:43:36;9.80;99.90
24412;DHT22;12544;46.760;15.942;2023-05-08T02:48:38;9.70;99.90
24412;DHT22;12544;46.760;15.942;2023-05-08T02:51:28;9.70;99.90
24412;DHT22;12544;46.760;15.942;2023-05-08T02:54:03;9.70;99.90
24412;DHT22;12544;46.760;15.942;2023-05-08T02:56:42;9.70;99.90
24412;DHT22;12544;46.760;15.942;2023-05-08T02:59:21;9.70;99.90
24412;DHT22;12544;46.760;15.942;2023-05-08T03:01:53;9.70;99.90
24412;DHT22;12544;46.760;15.942;2023-05-08T03:04:39;9.60;99.90
24412;DHT22;12544;46.760;15.942;2023-05-08T03:07:06;9.60;99.90
24412;DHT22;12544;46.760;15.942;2023-05-08T03:09:56;9.50;99.90
24412;DHT22;12544;46.760;15.942;2023-05-08T03:12:27;9.40;99.90
24412;DHT22;12544;46.760;15.942;2023-05-08T03:15:03;9.40;99.90
24412;DHT22;12544;46.760;15.942;2023-05-08T03:17:32;9.40;99.90
24412;DHT22;12544;46.760;15.942;2023-05-08T03:20:02;9.40;99.90
24412;DHT22;12544;46.760;15.942;2023-05-08T03:22:31;9.20;99.90
24412;DHT22;12544;46.760;15.942;2023-05-08T03:24:59;9.20;99.90
24412;DHT22;12544;46.760;15.942;2023-05-08T03:27:28;9.20;99.90
24412;DHT22;12544;46.760;15.942;2023-05-08T03:29:56;9.20;99.90
24412;DHT22;12544;46.760;15.942;2023-05-08T03:32:25;9.20;99.90
24412;DHT22;12544;46.760;15.942;2023-05-08T03:34:51;9.20;99.90
24412;DHT22;12544;46.760;15.942;2023-05-08T03:37:18;9.20;99.90
24412;DHT22;12544;46.760;15.942;2023-05-08T03:39:44;9.20;99.90
24412;DHT22;12544;46.760;15.942;2023-05-08T03:42:10;9.20;99.90
24412;DHT22;12544;46.760;15.942;2023-05-08T03:44:47;9.20;99.90
24412;DHT22;12544;46.760;15.942;2023-05-08T03:47:13;9.20;99.90
24412;DHT22;12544;46.760;15.942;2023-05-08T03:49:39;9.20;99.90
24412;DHT22;12544;46.760;15.942;2023-05-08T03:52:09;9.20;99.90
24412;DHT22;12544;46.760;15.942;2023-05-08T03:54:35;9.20;99.90
24412;DHT22;12544;46.760;15.942;2023-05-08T03:57:01;9.20;99.90
24412;DHT22;12544;46.760;15.942;2023-05-08T03:59:49;9.20;99.90
24412;DHT22;12544;46.760;15.942;2023-05-08T04:02:24;9.10;99.90
24412;DHT22;12544;46.760;15.942;2023-05-08T04:05:06;9.20;99.90
24412;DHT22;12544;46.760;15.942;2023-05-08T04:07:39;9.20;99.90
24412;DHT22;12544;46.760;15.942;2023-05-08T04:10:20;9.10;99.90
24412;DHT22;12544;46.760;15.942;2023-05-08T04:15:22;9.10;99.90
24412;DHT22;12544;46.760;15.942;2023-05-08T04:17:54;9.10;99.90
24412;DHT22;12544;46.760;15.942;2023-05-08T04:20:25;9.10;99.90
24412;DHT22;12544;46.760;15.942;2023-05-08T04:22:53;9.20;99.90
24412;DHT22;12544;46.760;15.942;2023-05-08T04:25:19;9.20;99.90
24412;DHT22;12544;46.760;15.942;2023-05-08T04:27:46;9.20;99.90
24412;DHT22;12544;46.760;15.942;2023-05-08T04:30:13;9.20;99.90
24412;DHT22;12544;46.760;15.942;2023-05-08T04:32:40;9.20;99.90
24412;DHT22;12544;46.760;15.942;2023-05-08T04:35:06;9.20;99.90
24412;DHT22;12544;46.760;15.942;2023-05-08T04:37:32;9.30;99.90
24412;DHT22;12544;46.760;15.942;2023-05-08T04:39:58;9.30;99.90
24412;DHT22;12544;46.760;15.942;2023-05-08T04:42:24;9.30;99.90
24412;DHT22;12544;46.760;15.942;2023-05-08T04:44:51;9.40;99.90
24412;DHT22;12544;46.760;15.942;2023-05-08T04:47:17;9.40;99.90
24412;DHT22;12544;46.760;15.942;2023-05-08T04:49:42;9.50;99.90
24412;DHT22;12544;46.760;15.942;2023-05-08T04:52:08;9.50;99.90
24412;DHT22;12544;46.760;15.942;2023-05-08T04:54:34;9.40;99.90
24412;DHT22;12544;46.760;15.942;2023-05-08T04:57:00;9.30;99.90
24412;DHT22;12544;46.760;15.942;2023-05-08T04:59:26;9.30;99.90
24412;DHT22;12544;46.760;15.942;2023-05-08T05:01:52;9.40;99.90
24412;DHT22;12544;46.760;15.942;2023-05-08T05:04:17;9.40;99.90
24412;DHT22;12544;46.760;15.942;2023-05-08T05:06:43;9.40;99.90
24412;DHT22;12544;46.760;15.942;2023-05-08T05:09:09;9.40;99.90
24412;DHT22;12544;46.760;15.942;2023-05-08T05:11:36;9.40;99.90
24412;DHT22;12544;46.760;15.942;2023-05-08T05:14:01;9.30;99.90
24412;DHT22;12544;46.760;15.942;2023-05-08T05:16:27;9.40;99.90
24412;DHT22;12544;46.760;15.942;2023-05-08T05:18:52;9.30;99.90
24412;DHT22;12544;46.760;15.942;2023-05-08T05:21:27;9.30;99.90
24412;DHT22;12544;46.760;15.942;2023-05-08T05:23:53;9.30;99.90
24412;DHT22;12544;46.760;15.942;2023-05-08T05:26:19;9.30;99.90
24412;DHT22;12544;46.760;15.942;2023-05-08T05:28:45;9.30;99.90
24412;DHT22;12544;46.760;15.942;2023-05-08T05:31:13;9.30;99.90
24412;DHT22;12544;46.760;15.942;2023-05-08T05:33:38;9.40;99.90
24412;DHT22;12544;46.760;15.942;2023-05-08T05:36:04;9.50;99.90
24412;DHT22;12544;46.760;15.942;2023-05-08T05:38:32;9.40;99.90
24412;DHT22;12544;46.760;15.942;2023-05-08T05:40:57;9.40;99.90
24412;DHT22;12544;46.760;15.942;2023-05-08T05:43:23;9.40;99.90
24412;DHT22;12544;46.760;15.942;2023-05-08T05:45:48;9.40;99.90
24412;DHT22;12544;46.760;15.942;2023-05-08T05:48:14;9.30;99.90
24412;DHT22;12544;46.760;15.942;2023-05-08T05:50:40;9.20;99.90
24412;DHT22;12544;46.760;15.942;2023-05-08T05:53:05;9.20;99.90
24412;DHT22;12544;46.760;15.942;2023-05-08T05:55:31;9.10;99.90
24412;DHT22;12544;46.760;15.942;2023-05-08T05:57:56;9.10;99.90
24412;DHT22;12544;46.760;15.942;2023-05-08T06:00:22;9.10;99.90
24412;DHT22;12544;46.760;15.942;2023-05-08T06:02:48;9.10;99.90
24412;DHT22;12544;46.760;15.942;2023-05-08T06:05:13;9.10;99.90
24412;DHT22;12544;46.760;15.942;2023-05-08T06:07:39;9.20;99.90
24412;DHT22;12544;46.760;15.942;2023-05-08T06:10:05;9.20;99.90
24412;DHT22;12544;46.760;15.942;2023-05-08T06:12:31;9.20;99.90
24412;DHT22;12544;46.760;15.942;2023-05-08T06:14:57;9.30;99.90
24412;DHT22;12544;46.760;15.942;2023-05-08T06:17:22;9.30;99.90
24412;DHT22;12544;46.760;15.942;2023-05-08T06:19:48;9.40;99.90
24412;DHT22;12544;46.760;15.942;2023-05-08T06:22:18;9.40;99.90
24412;DHT22;12544;46.760;15.942;2023-05-08T06:24:44;9.40;99.90
24412;DHT22;12544;46.760;15.942;2023-05-08T06:27:10;9.50;99.90
24412;DHT22;12544;46.760;15.942;2023-05-08T06:29:36;9.50;99.90
24412;DHT22;12544;46.760;15.942;2023-05-08T06:32:02;9.50;99.90
24412;DHT22;12544;46.760;15.942;2023-05-08T06:34:27;9.50;99.90
24412;DHT22;12544;46.760;15.942;2023-05-08T06:36:53;9.60;99.90
24412;DHT22;12544;46.760;15.942;2023-05-08T06:39:19;9.60;99.90
24412;DHT22;12544;46.760;15.942;2023-05-08T06:41:47;9.70;99.90
24412;DHT22;12544;46.760;15.942;2023-05-08T06:44:13;9.60;99.90
24412;DHT22;12544;46.760;15.942;2023-05-08T06:46:39;9.60;99.90
24412;DHT22;12544;46.760;15.942;2023-05-08T06:49:05;9.60;99.90
24412;DHT22;12544;46.760;15.942;2023-05-08T06:51:31;9.70;99.90
24412;DHT22;12544;46.760;15.942;2023-05-08T06:53:57;9.80;99.90
24412;DHT22;12544;46.760;15.942;2023-05-08T06:56:23;9.80;99.90
24412;DHT22;12544;46.760;15.942;2023-05-08T06:58:49;9.80;99.90
24412;DHT22;12544;46.760;15.942;2023-05-08T07:01:14;9.90;99.90
24412;DHT22;12544;46.760;15.942;2023-05-08T07:03:40;9.90;99.90
24412;DHT22;12544;46.760;15.942;2023-05-08T07:06:07;9.90;99.90
24412;DHT22;12544;46.760;15.942;2023-05-08T07:08:33;9.90;99.90
24412;DHT22;12544;46.760;15.942;2023-05-08T07:10:59;9.90;99.90
24412;DHT22;12544;46.760;15.942;2023-05-08T07:13:25;9.90;99.90
24412;DHT22;12544;46.760;15.942;2023-05-08T07:15:50;9.90;99.90
24412;DHT22;12544;46.760;15.942;2023-05-08T07:18:16;10.00;99.90
24412;DHT22;12544;46.760;15.942;2023-05-08T07:20:42;9.90;99.90
24412;DHT22;12544;46.760;15.942;2023-05-08T07:23:07;9.90;99.90
24412;DHT22;12544;46.760;15.942;2023-05-08T07:25:34;10.00;99.90
24412;DHT22;12544;46.760;15.942;2023-05-08T07:28:00;10.00;99.90
24412;DHT22;12544;46.760;15.942;2023-05-08T07:30:25;10.00;99.90
24412;DHT22;12544;46.760;15.942;2023-05-08T07:32:51;10.00;99.90
24412;DHT22;12544;46.760;15.942;2023-05-08T07:35:16;10.00;99.90
24412;DHT22;12544;46.760;15.942;2023-05-08T07:37:42;9.90;99.90
24412;DHT22;12544;46.760;15.942;2023-05-08T07:40:08;10.00;99.90
24412;DHT22;12544;46.760;15.942;2023-05-08T07:42:40;10.00;99.90
24412;DHT22;12544;46.760;15.942;2023-05-08T07:45:12;9.90;99.90
24412;DHT22;12544;46.760;15.942;2023-05-08T07:47:47;9.90;99.90
24412;DHT22;12544;46.760;15.942;2023-05-08T07:50:13;9.90;99.90
24412;DHT22;12544;46.760;15.942;2023-05-08T07:52:39;10.00;99.90
24412;DHT22;12544;46.760;15.942;2023-05-08T07:55:14;10.00;99.90
24412;DHT22;12544;46.760;15.942;2023-05-08T07:57:41;10.00;99.90
24412;DHT22;12544;46.760;15.942;2023-05-08T08:00:08;9.90;99.90
24412;DHT22;12544;46.760;15.942;2023-05-08T08:02:34;9.90;99.90
24412;DHT22;12544;46.760;15.942;2023-05-08T08:05:00;10.00;99.90
24412;DHT22;12544;46.760;15.942;2023-05-08T08:07:26;10.00;99.90
24412;DHT22;12544;46.760;15.942;2023-05-08T08:09:51;10.10;99.90
24412;DHT22;12544;46.760;15.942;2023-05-08T08:12:17;10.10;99.90
24412;DHT22;12544;46.760;15.942;2023-05-08T08:14:43;10.10;99.90
24412;DHT22;12544;46.760;15.942;2023-05-08T08:17:08;10.10;99.90
24412;DHT22;12544;46.760;15.942;2023-05-08T08:19:34;10.20;99.90
24412;DHT22;12544;46.760;15.942;2023-05-08T08:22:04;10.20;99.90
24412;DHT22;12544;46.760;15.942;2023-05-08T08:24:30;10.30;99.90
24412;DHT22;12544;46.760;15.942;2023-05-08T08:26:56;10.30;99.90
24412;DHT22;12544;46.760;15.942;2023-05-08T08:29:22;10.30;99.90
24412;DHT22;12544;46.760;15.942;2023-05-08T08:31:47;10.30;99.90
24412;DHT22;12544;46.760;15.942;2023-05-08T08:34:19;10.30;99.90
24412;DHT22;12544;46.760;15.942;2023-05-08T08:36:44;10.40;99.90
24412;DHT22;12544;46.760;15.942;2023-05-08T08:39:10;10.40;99.90
24412;DHT22;12544;46.760;15.942;2023-05-08T08:41:37;10.40;99.90
24412;DHT22;12544;46.760;15.942;2023-05-08T08:44:04;10.30;99.90
24412;DHT22;12544;46.760;15.942;2023-05-08T08:46:30;10.50;99.90
24412;DHT22;12544;46.760;15.942;2023-05-08T08:49:02;10.60;99.90
24412;DHT22;12544;46.760;15.942;2023-05-08T08:51:35;10.60;99.90
24412;DHT22;12544;46.760;15.942;2023-05-08T08:54:12;10.70;99.90
24412;DHT22;12544;46.760;15.942;2023-05-08T08:56:40;10.80;99.90
24412;DHT22;12544;46.760;15.942;2023-05-08T08:59:10;10.80;99.90
24412;DHT22;12544;46.760;15.942;2023-05-08T09:01:38;10.90;99.90
24412;DHT22;12544;46.760;15.942;2023-05-08T09:04:05;11.00;99.90
24412;DHT22;12544;46.760;15.942;2023-05-08T09:06:34;11.10;99.90
24412;DHT22;12544;46.760;15.942;2023-05-08T09:09:03;11.10;99.90
24412;DHT22;12544;46.760;15.942;2023-05-08T09:11:30;11.10;99.90
24412;DHT22;12544;46.760;15.942;2023-05-08T09:13:55;11.10;99.90
24412;DHT22;12544;46.760;15.942;2023-05-08T09:16:22;11.10;99.90
24412;DHT22;12544;46.760;15.942;2023-05-08T09:18:48;11.30;99.90
24412;DHT22;12544;46.760;15.942;2023-05-08T09:21:19;11.50;99.90
24412;DHT22;12544;46.760;15.942;2023-05-08T09:26:34;11.80;99.90
24412;DHT22;12544;46.760;15.942;2023-05-08T09:29:19;11.90;99.90
24412;DHT22;12544;46.760;15.942;2023-05-08T09:31:50;12.00;99.90
24412;DHT22;12544;46.760;15.942;2023-05-08T09:34:30;12.10;99.90
24412;DHT22;12544;46.760;15.942;2023-05-08T09:39:32;12.00;99.90
24412;DHT22;12544;46.760;15.942;2023-05-08T09:42:02;12.10;99.90
24412;DHT22;12544;46.760;15.942;2023-05-08T09:44:43;12.20;99.90
24412;DHT22;12544;46.760;15.942;2023-05-08T09:47:11;12.30;99.90
24412;DHT22;12544;46.760;15.942;2023-05-08T09:49:37;12.50;99.90
24412;DHT22;12544;46.760;15.942;2023-05-08T09:52:08;12.50;99.90
24412;DHT22;12544;46.760;15.942;2023-05-08T09:54:39;12.50;99.90
24412;DHT22;12544;46.760;15.942;2023-05-08T09:57:11;12.50;99.90
24412;DHT22;12544;46.760;15.942;2023-05-08T09:59:37;12.50;99.90
24412;DHT22;12544;46.760;15.942;2023-05-08T10:02:09;12.70;99.90
24412;DHT22;12544;46.760;15.942;2023-05-08T10:04:36;12.70;99.90
24412;DHT22;12544;46.760;15.942;2023-05-08T10:07:03;12.90;99.90
24412;DHT22;12544;46.760;15.942;2023-05-08T10:09:33;12.90;99.90
24412;DHT22;12544;46.760;15.942;2023-05-08T10:11:59;13.00;99.90
24412;DHT22;12544;46.760;15.942;2023-05-08T10:14:25;13.10;99.90
24412;DHT22;12544;46.760;15.942;2023-05-08T10:16:51;13.30;99.90
24412;DHT22;12544;46.760;15.942;2023-05-08T10:19:22;13.30;99.90
24412;DHT22;12544;46.760;15.942;2023-05-08T10:21:52;13.50;99.90
24412;DHT22;12544;46.760;15.942;2023-05-08T10:24:32;13.60;99.90
24412;DHT22;12544;46.760;15.942;2023-05-08T10:27:04;13.40;99.90
24412;DHT22;12544;46.760;15.942;2023-05-08T10:30:06;13.20;99.90
24412;DHT22;12544;46.760;15.942;2023-05-08T10:32:38;13.20;99.90
24412;DHT22;12544;46.760;15.942;2023-05-08T10:35:08;13.40;99.90
24412;DHT22;12544;46.760;15.942;2023-05-08T10:37:36;13.50;99.90
24412;DHT22;12544;46.760;15.942;2023-05-08T10:40:04;13.30;99.90
24412;DHT22;12544;46.760;15.942;2023-05-08T10:42:32;13.30;99.90
24412;DHT22;12544;46.760;15.942;2023-05-08T10:45:00;13.40;99.90
24412;DHT22;12544;46.760;15.942;2023-05-08T10:47:44;13.60;99.90
24412;DHT22;12544;46.760;15.942;2023-05-08T10:52:46;13.90;99.90
24412;DHT22;12544;46.760;15.942;2023-05-08T10:55:27;14.10;99.90
24412;DHT22;12544;46.760;15.942;2023-05-08T10:58:03;14.40;99.90
24412;DHT22;12544;46.760;15.942;2023-05-08T11:03:16;14.30;99.90
24412;DHT22;12544;46.760;15.942;2023-05-08T11:05:46;14.20;99.90
24412;DHT22;12544;46.760;15.942;2023-05-08T11:08:17;14.30;99.90
24412;DHT22;12544;46.760;15.942;2023-05-08T11:13:49;14.30;99.90
24412;DHT22;12544;46.760;15.942;2023-05-08T11:16:16;14.50;99.90
24412;DHT22;12544;46.760;15.942;2023-05-08T11:19:20;14.70;99.90
24412;DHT22;12544;46.760;15.942;2023-05-08T11:22:12;14.90;99.90
24412;DHT22;12544;46.760;15.942;2023-05-08T11:24:39;15.00;99.90
24412;DHT22;12544;46.760;15.942;2023-05-08T11:27:05;15.00;99.90
24412;DHT22;12544;46.760;15.942;2023-05-08T11:29:32;15.00;99.90
24412;DHT22;12544;46.760;15.942;2023-05-08T11:32:00;15.10;99.90
24412;DHT22;12544;46.760;15.942;2023-05-08T11:37:19;15.00;99.90
24412;DHT22;12544;46.760;15.942;2023-05-08T11:39:45;14.90;99.90
24412;DHT22;12544;46.760;15.942;2023-05-08T11:45:02;14.90;99.90
24412;DHT22;12544;46.760;15.942;2023-05-08T11:50:04;15.10;99.90
24412;DHT22;12544;46.760;15.942;2023-05-08T11:52:33;15.20;99.90
24412;DHT22;12544;46.760;15.942;2023-05-08T11:55:02;15.30;99.90
24412;DHT22;12544;46.760;15.942;2023-05-08T11:57:29;15.30;99.90
24412;DHT22;12544;46.760;15.942;2023-05-08T11:59:56;15.50;99.90
24412;DHT22;12544;46.760;15.942;2023-05-08T12:05:00;15.70;99.90
24412;DHT22;12544;46.760;15.942;2023-05-08T12:07:26;15.70;99.90
24412;DHT22;12544;46.760;15.942;2023-05-08T12:09:52;15.80;99.90
24412;DHT22;12544;46.760;15.942;2023-05-08T12:12:17;15.80;99.90
24412;DHT22;12544;46.760;15.942;2023-05-08T12:14:43;15.70;99.90
24412;DHT22;12544;46.760;15.942;2023-05-08T12:17:16;15.60;99.90
24412;DHT22;12544;46.760;15.942;2023-05-08T12:19:43;15.80;99.90
24412;DHT22;12544;46.760;15.942;2023-05-08T12:22:08;15.90;99.90
24412;DHT22;12544;46.760;15.942;2023-05-08T12:24:34;16.00;99.90
24412;DHT22;12544;46.760;15.942;2023-05-08T12:26:59;16.10;99.90
24412;DHT22;12544;46.760;15.942;2023-05-08T12:29:25;16.20;99.90
24412;DHT22;12544;46.760;15.942;2023-05-08T12:31:58;16.30;99.90
24412;DHT22;12544;46.760;15.942;2023-05-08T12:34:23;16.40;99.90
24412;DHT22;12544;46.760;15.942;2023-05-08T12:37:00;16.30;99.90
24412;DHT22;12544;46.760;15.942;2023-05-08T12:39:26;16.30;99.90
24412;DHT22;12544;46.760;15.942;2023-05-08T12:41:52;16.20;99.90
24412;DHT22;12544;46.760;15.942;2023-05-08T12:44:24;16.00;99.90
24412;DHT22;12544;46.760;15.942;2023-05-08T12:46:55;16.10;99.90
24412;DHT22;12544;46.760;15.942;2023-05-08T12:49:28;16.20;99.90
24412;DHT22;12544;46.760;15.942;2023-05-08T12:52:07;16.40;99.90
24412;DHT22;12544;46.760;15.942;2023-05-08T12:54:38;16.60;99.90
24412;DHT22;12544;46.760;15.942;2023-05-08T12:57:11;16.90;99.90
24412;DHT22;12544;46.760;15.942;2023-05-08T12:59:37;17.20;99.90
24412;DHT22;12544;46.760;15.942;2023-05-08T13:02:02;17.20;99.90
24412;DHT22;12544;46.760;15.942;2023-05-08T13:04:28;17.20;99.90
24412;DHT22;12544;46.760;15.942;2023-05-08T13:06:55;17.00;99.90
24412;DHT22;12544;46.760;15.942;2023-05-08T13:09:21;17.00;99.90
24412;DHT22;12544;46.760;15.942;2023-05-08T13:11:47;17.10;99.90
24412;DHT22;12544;46.760;15.942;2023-05-08T13:14:14;17.20;99.90
24412;DHT22;12544;46.760;15.942;2023-05-08T13:16:43;17.40;99.90
24412;DHT22;12544;46.760;15.942;2023-05-08T13:19:09;17.70;99.90
24412;DHT22;12544;46.760;15.942;2023-05-08T13:21:34;18.00;99.90
24412;DHT22;12544;46.760;15.942;2023-05-08T13:24:00;17.90;99.90
24412;DHT22;12544;46.760;15.942;2023-05-08T13:26:26;17.90;99.90
24412;DHT22;12544;46.760;15.942;2023-05-08T13:28:52;17.70;99.90
24412;DHT22;12544;46.760;15.942;2023-05-08T13:31:17;17.70;99.90
24412;DHT22;12544;46.760;15.942;2023-05-08T13:33:43;17.60;99.90
24412;DHT22;12544;46.760;15.942;2023-05-08T13:36:09;17.50;99.90
24412;DHT22;12544;46.760;15.942;2023-05-08T13:38:35;17.50;99.90
24412;DHT22;12544;46.760;15.942;2023-05-08T13:41:01;17.60;99.90
24412;DHT22;12544;46.760;15.942;2023-05-08T13:43:26;17.60;99.90
24412;DHT22;12544;46.760;15.942;2023-05-08T13:45:52;17.80;99.90
24412;DHT22;12544;46.760;15.942;2023-05-08T13:48:18;17.90;99.90
24412;DHT22;12544;46.760;15.942;2023-05-08T13:50:44;17.90;99.90
24412;DHT22;12544;46.760;15.942;2023-05-08T13:53:09;17.70;99.90
24412;DHT22;12544;46.760;15.942;2023-05-08T13:55:35;17.60;99.90
24412;DHT22;12544;46.760;15.942;2023-05-08T13:58:01;17.50;99.90
24412;DHT22;12544;46.760;15.942;2023-05-08T14:00:27;17.30;99.90
24412;DHT22;12544;46.760;15.942;2023-05-08T14:02:52;17.20;99.90
24412;DHT22;12544;46.760;15.942;2023-05-08T14:05:18;17.10;99.90
24412;DHT22;12544;46.760;15.942;2023-05-08T14:07:43;16.90;99.90
24412;DHT22;12544;46.760;15.942;2023-05-08T14:10:10;16.80;99.90
24412;DHT22;12544;46.760;15.942;2023-05-08T14:12:35;16.70;99.90
24412;DHT22;12544;46.760;15.942;2023-05-08T14:15:03;16.50;99.90
24412;DHT22;12544;46.760;15.942;2023-05-08T14:17:29;16.60;99.90
24412;DHT22;12544;46.760;15.942;2023-05-08T14:19:54;16.70;99.90
24412;DHT22;12544;46.760;15.942;2023-05-08T14:22:20;16.80;99.90
24412;DHT22;12544;46.760;15.942;2023-05-08T14:24:46;17.20;99.90
24412;DHT22;12544;46.760;15.942;2023-05-08T14:27:11;17.50;99.90
24412;DHT22;12544;46.760;15.942;2023-05-08T14:29:38;17.60;99.90
24412;DHT22;12544;46.760;15.942;2023-05-08T14:32:03;17.70;99.90
24412;DHT22;12544;46.760;15.942;2023-05-08T14:34:29;17.50;99.90
24412;DHT22;12544;46.760;15.942;2023-05-08T14:36:55;17.30;99.90
24412;DHT22;12544;46.760;15.942;2023-05-08T14:39:20;17.10;99.90
24412;DHT22;12544;46.760;15.942;2023-05-08T14:41:46;17.00;99.90
24412;DHT22;12544;46.760;15.942;2023-05-08T14:44:12;16.90;99.90
24412;DHT22;12544;46.760;15.942;2023-05-08T14:46:39;16.70;99.90
24412;DHT22;12544;46.760;15.942;2023-05-08T14:49:05;16.70;99.90
24412;DHT22;12544;46.760;15.942;2023-05-08T14:51:31;16.90;99.90
24412;DHT22;12544;46.760;15.942;2023-05-08T14:53:56;17.30;99.90
24412;DHT22;12544;46.760;15.942;2023-05-08T14:56:22;17.60;99.90
24412;DHT22;12544;46.760;15.942;2023-05-08T14:58:50;17.90;99.90
24412;DHT22;12544;46.760;15.942;2023-05-08T15:01:17;18.10;99.90
24412;DHT22;12544;46.760;15.942;2023-05-08T15:03:43;18.40;99.90
24412;DHT22;12544;46.760;15.942;2023-05-08T15:06:11;18.40;99.90
24412;DHT22;12544;46.760;15.942;2023-05-08T15:08:37;18.60;99.90
24412;DHT22;12544;46.760;15.942;2023-05-08T15:11:02;18.70;99.90
24412;DHT22;12544;46.760;15.942;2023-05-08T15:13:28;18.60;99.90
24412;DHT22;12544;46.760;15.942;2023-05-08T15:15:55;18.50;99.90
24412;DHT22;12544;46.760;15.942;2023-05-08T15:18:20;18.50;99.90
24412;DHT22;12544;46.760;15.942;2023-05-08T15:20:48;18.60;99.90
24412;DHT22;12544;46.760;15.942;2023-05-08T15:23:14;18.70;99.90
24412;DHT22;12544;46.760;15.942;2023-05-08T15:25:40;18.60;99.90
24412;DHT22;12544;46.760;15.942;2023-05-08T15:28:06;18.60;99.90
24412;DHT22;12544;46.760;15.942;2023-05-08T15:30:31;18.60;99.90
24412;DHT22;12544;46.760;15.942;2023-05-08T15:32:57;18.50;99.90
24412;DHT22;12544;46.760;15.942;2023-05-08T15:35:22;18.50;99.90
24412;DHT22;12544;46.760;15.942;2023-05-08T15:37:48;18.50;99.90
24412;DHT22;12544;46.760;15.942;2023-05-08T15:40:14;18.40;99.90
24412;DHT22;12544;46.760;15.942;2023-05-08T15:42:40;18.40;99.90
24412;DHT22;12544;46.760;15.942;2023-05-08T15:45:06;18.40;99.90
24412;DHT22;12544;46.760;15.942;2023-05-08T15:47:31;18.50;99.90
24412;DHT22;12544;46.760;15.942;2023-05-08T15:49:57;18.40;99.90
24412;DHT22;12544;46.760;15.942;2023-05-08T15:52:23;18.40;99.90
24412;DHT22;12544;46.760;15.942;2023-05-08T15:54:49;18.50;99.90
24412;DHT22;12544;46.760;15.942;2023-05-08T15:57:22;18.60;99.90
24412;DHT22;12544;46.760;15.942;2023-05-08T15:59:48;18.40;99.90
24412;DHT22;12544;46.760;15.942;2023-05-08T16:02:13;17.90;99.90
24412;DHT22;12544;46.760;15.942;2023-05-08T16:04:39;17.70;99.90
24412;DHT22;12544;46.760;15.942;2023-05-08T16:07:05;17.50;99.90
24412;DHT22;12544;46.760;15.942;2023-05-08T16:09:30;17.40;99.90
24412;DHT22;12544;46.760;15.942;2023-05-08T16:11:56;17.30;99.90
24412;DHT22;12544;46.760;15.942;2023-05-08T16:14:22;17.10;99.90
24412;DHT22;12544;46.760;15.942;2023-05-08T16:16:47;16.90;99.90
24412;DHT22;12544;46.760;15.942;2023-05-08T16:19:13;16.80;99.90
24412;DHT22;12544;46.760;15.942;2023-05-08T16:21:40;16.80;99.90